sensor_id;sensor_type;location;lat;lon;timestamp;temperature;humidity
4727;DHT22;2377;51.734;8.950;2023-05-20T00:01:16;12.50;1.00
4727;DHT22;2377;51.734;8.950;2023-05-20T00:03:43;12.50;1.00
4727;DHT22;2377;51.734;8.950;2023-05-20T00:06:11;12.40;1.00
4727;DHT22;2377;51.734;8.950;2023-05-20T00:08:38;12.40;1.00
4727;DHT22;2377;51.734;8.950;2023-05-20T00:11:05;12.40;1.00
4727;DHT22;2377;51.734;8.950;2023-05-20T00:13:32;12.40;1.00
4727;DHT22;2377;51.734;8.950;2023-05-20T00:16:00;12.30;1.00
4727;DHT22;2377;51.734;8.950;2023-05-20T00:18:27;12.30;1.00
4727;DHT22;2377;51.734;8.950;2023-05-20T00:20:54;12.30;1.00
4727;DHT22;2377;51.734;8.950;2023-05-20T00:23:22;12.30;1.00
4727;DHT22;2377;51.734;8.950;2023-05-20T00:25:49;12.30;1.00
4727;DHT22;2377;51.734;8.950;2023-05-20T00:28:16;12.30;1.00
4727;DHT22;2377;51.734;8.950;2023-05-20T00:30:44;12.20;1.00
4727;DHT22;2377;51.734;8.950;2023-05-20T00:33:11;12.20;1.00
4727;DHT22;2377;51.734;8.950;2023-05-20T00:35:38;12.10;1.00
4727;DHT22;2377;51.734;8.950;2023-05-20T00:38:04;12.20;1.00
4727;DHT22;2377;51.734;8.950;2023-05-20T00:40:33;12.10;1.00
4727;DHT22;2377;51.734;8.950;2023-05-20T00:43:00;12.10;1.00
4727;DHT22;2377;51.734;8.950;2023-05-20T00:45:27;12.10;1.00
4727;DHT22;2377;51.734;8.950;2023-05-20T00:47:54;12.10;1.00
4727;DHT22;2377;51.734;8.950;2023-05-20T00:50:26;12.00;1.00
4727;DHT22;2377;51.734;8.950;2023-05-20T00:52:53;11.90;1.00
4727;DHT22;2377;51.734;8.950;2023-05-20T00:55:20;11.80;1.00
4727;DHT22;2377;51.734;8.950;2023-05-20T00:57:49;11.80;1.00
4727;DHT22;2377;51.734;8.950;2023-05-20T01:00:17;11.80;1.00
4727;DHT22;2377;51.734;8.950;2023-05-20T01:02:44;11.80;1.00
4727;DHT22;2377;51.734;8.950;2023-05-20T01:05:11;11.80;1.00
4727;DHT22;2377;51.734;8.950;2023-05-20T01:07:40;11.80;1.00
4727;DHT22;2377;51.734;8.950;2023-05-20T01:10:11;11.70;1.00
4727;DHT22;2377;51.734;8.950;2023-05-20T01:12:48;11.70;1.00
4727;DHT22;2377;51.734;8.950;2023-05-20T01:15:21;11.60;1.00
4727;DHT22;2377;51.734;8.950;2023-05-20T01:17:56;11.60;1.00
4727;DHT22;2377;51.734;8.950;2023-05-20T01:20:27;11.60;1.00
4727;DHT22;2377;51.734;8.950;2023-05-20T01:22:58;11.50;1.00
4727;DHT22;2377;51.734;8.950;2023-05-20T01:25:25;11.50;1.00
4727;DHT22;2377;51.734;8.950;2023-05-20T01:27:54;11.50;1.00
4727;DHT22;2377;51.734;8.950;2023-05-20T01:30:41;11.50;1.00
4727;DHT22;2377;51.734;8.950;2023-05-20T01:33:14;11.50;1.00
4727;DHT22;2377;51.734;8.950;2023-05-20T01:35:46;11.50;1.00
4727;DHT22;2377;51.734;8.950;2023-05-20T01:38:14;11.40;1.00
4727;DHT22;2377;51.734;8.950;2023-05-20T01:40:45;11.40;1.00
4727;DHT22;2377;51.734;8.950;2023-05-20T01:43:13;11.30;1.00
4727;DHT22;2377;51.734;8.950;2023-05-20T01:45:43;11.30;1.00
4727;DHT22;2377;51.734;8.950;2023-05-20T01:48:10;11.30;1.00
4727;DHT22;2377;51.734;8.950;2023-05-20T01:50:38;11.30;1.00
4727;DHT22;2377;51.734;8.950;2023-05-20T01:53:05;11.30;1.00
4727;DHT22;2377;51.734;8.950;2023-05-20T01:55:34;11.30;1.00
4727;DHT22;2377;51.734;8.950;2023-05-20T01:58:01;11.20;1.00
4727;DHT22;2377;51.734;8.950;2023-05-20T02:00:28;11.20;1.00
4727;DHT22;2377;51.734;8.950;2023-05-20T02:02:55;11.20;1.00
4727;DHT22;2377;51.734;8.950;2023-05-20T02:05:22;11.20;1.00
4727;DHT22;2377;51.734;8.950;2023-05-20T02:07:49;11.20;1.00
4727;DHT22;2377;51.734;8.950;2023-05-20T02:10:16;11.20;1.00
4727;DHT22;2377;51.734;8.950;2023-05-20T02:12:44;11.20;1.00
4727;DHT22;2377;51.734;8.950;2023-05-20T02:15:12;11.20;1.00
4727;DHT22;2377;51.734;8.950;2023-05-20T02:17:39;11.10;1.00
4727;DHT22;2377;51.734;8.950;2023-05-20T02:20:08;11.10;1.00
4727;DHT22;2377;51.734;8.950;2023-05-20T02:22:36;11.10;1.00
4727;DHT22;2377;51.734;8.950;2023-05-20T02:25:03;11.10;1.00
4727;DHT22;2377;51.734;8.950;2023-05-20T02:27:31;11.10;1.00
4727;DHT22;2377;51.734;8.950;2023-05-20T02:29:59;11.10;1.00
4727;DHT22;2377;51.734;8.950;2023-05-20T02:32:26;11.10;1.00
4727;DHT22;2377;51.734;8.950;2023-05-20T02:34:54;11.10;1.00
4727;DHT22;2377;51.734;8.950;2023-05-20T02:37:21;11.00;1.00
4727;DHT22;2377;51.734;8.950;2023-05-20T02:39:48;11.00;1.00
4727;DHT22;2377;51.734;8.950;2023-05-20T02:42:14;11.10;1.00
4727;DHT22;2377;51.734;8.950;2023-05-20T02:44:41;11.10;1.00
4727;DHT22;2377;51.734;8.950;2023-05-20T02:47:10;11.10;1.00
4727;DHT22;2377;51.734;8.950;2023-05-20T02:49:37;11.00;1.00
4727;DHT22;2377;51.734;8.950;2023-05-20T02:52:04;11.00;1.00
4727;DHT22;2377;51.734;8.950;2023-05-20T02:54:33;11.00;1.00
4727;DHT22;2377;51.734;8.950;2023-05-20T02:57:00;11.10;1.00
4727;DHT22;2377;51.734;8.950;2023-05-20T02:59:27;11.00;1.00
4727;DHT22;2377;51.734;8.950;2023-05-20T03:01:54;11.00;1.00
4727;DHT22;2377;51.734;8.950;2023-05-20T03:04:22;11.00;1.00
4727;DHT22;2377;51.734;8.950;2023-05-20T03:06:51;11.00;1.00
4727;DHT22;2377;51.734;8.950;2023-05-20T03:09:18;11.00;1.00
4727;DHT22;2377;51.734;8.950;2023-05-20T03:11:45;11.00;1.00
4727;DHT22;2377;51.734;8.950;2023-05-20T03:14:12;11.00;1.00
4727;DHT22;2377;51.734;8.950;2023-05-20T03:16:39;11.00;1.00
4727;DHT22;2377;51.734;8.950;2023-05-20T03:19:06;11.10;1.00
4727;DHT22;2377;51.734;8.950;2023-05-20T03:21:34;11.10;1.00
4727;DHT22;2377;51.734;8.950;2023-05-20T03:24:01;11.10;1.00
4727;DHT22;2377;51.734;8.950;2023-05-20T03:26:28;11.10;1.00
4727;DHT22;2377;51.734;8.950;2023-05-20T03:28:57;11.10;1.00
4727;DHT22;2377;51.734;8.950;2023-05-20T03:31:24;11.10;1.00
4727;DHT22;2377;51.734;8.950;2023-05-20T03:33:51;11.20;1.00
4727;DHT22;2377;51.734;8.950;2023-05-20T03:36:20;11.20;1.00
4727;DHT22;2377;51.734;8.950;2023-05-20T03:38:48;11.30;1.00
4727;DHT22;2377;51.734;8.950;2023-05-20T03:41:15;11.30;1.00
4727;DHT22;2377;51.734;8.950;2023-05-20T03:43:42;11.30;1.00
4727;DHT22;2377;51.734;8.950;2023-05-20T03:46:09;11.40;1.00
4727;DHT22;2377;51.734;8.950;2023-05-20T03:48:36;11.40;1.00
4727;DHT22;2377;51.734;8.950;2023-05-20T03:51:03;11.40;1.00
4727;DHT22;2377;51.734;8.950;2023-05-20T03:53:30;11.40;1.00
4727;DHT22;2377;51.734;8.950;2023-05-20T03:55:58;11.40;1.00
4727;DHT22;2377;51.734;8.950;2023-05-20T03:58:25;11.40;1.00
4727;DHT22;2377;51.734;8.950;2023-05-20T04:00:53;11.50;1.00
4727;DHT22;2377;51.734;8.950;2023-05-20T04:03:20;11.50;1.00
4727;DHT22;2377;51.734;8.950;2023-05-20T04:05:47;11.50;1.00
4727;DHT22;2377;51.734;8.950;2023-05-20T04:08:14;11.50;1.00
4727;DHT22;2377;51.734;8.950;2023-05-20T04:10:43;11.50;1.00
4727;DHT22;2377;51.734;8.950;2023-05-20T04:13:11;11.50;1.00
4727;DHT22;2377;51.734;8.950;2023-05-20T04:15:38;11.50;1.00
4727;DHT22;2377;51.734;8.950;2023-05-20T04:18:05;11.50;1.00
4727;DHT22;2377;51.734;8.950;2023-05-20T04:20:33;11.50;1.00
4727;DHT22;2377;51.734;8.950;2023-05-20T04:23:00;11.50;1.00
4727;DHT22;2377;51.734;8.950;2023-05-20T04:25:27;11.50;1.00
4727;DHT22;2377;51.734;8.950;2023-05-20T04:27:53;11.50;1.00
4727;DHT22;2377;51.734;8.950;2023-05-20T04:30:23;11.50;1.00
4727;DHT22;2377;51.734;8.950;2023-05-20T04:32:50;11.50;1.00
4727;DHT22;2377;51.734;8.950;2023-05-20T04:35:18;11.50;1.00
4727;DHT22;2377;51.734;8.950;2023-05-20T04:37:45;11.50;1.00
4727;DHT22;2377;51.734;8.950;2023-05-20T04:40:13;11.50;1.00
4727;DHT22;2377;51.734;8.950;2023-05-20T04:42:41;11.50;1.00
4727;DHT22;2377;51.734;8.950;2023-05-20T04:45:09;11.50;1.00
4727;DHT22;2377;51.734;8.950;2023-05-20T04:47:38;11.60;1.00
4727;DHT22;2377;51.734;8.950;2023-05-20T04:50:07;11.60;1.00
4727;DHT22;2377;51.734;8.950;2023-05-20T04:52:36;11.60;1.00
4727;DHT22;2377;51.734;8.950;2023-05-20T04:55:04;11.60;1.00
4727;DHT22;2377;51.734;8.950;2023-05-20T04:57:32;11.60;1.00
4727;DHT22;2377;51.734;8.950;2023-05-20T04:59:59;11.60;1.00
4727;DHT22;2377;51.734;8.950;2023-05-20T05:02:27;11.60;1.00
4727;DHT22;2377;51.734;8.950;2023-05-20T05:04:55;11.70;1.00
4727;DHT22;2377;51.734;8.950;2023-05-20T05:07:22;11.70;1.00
4727;DHT22;2377;51.734;8.950;2023-05-20T05:09:49;11.70;1.00
4727;DHT22;2377;51.734;8.950;2023-05-20T05:12:16;11.80;1.00
4727;DHT22;2377;51.734;8.950;2023-05-20T05:14:43;11.80;1.00
4727;DHT22;2377;51.734;8.950;2023-05-20T05:17:09;11.80;1.00
4727;DHT22;2377;51.734;8.950;2023-05-20T05:19:36;11.80;1.00
4727;DHT22;2377;51.734;8.950;2023-05-20T05:22:05;11.80;1.00
4727;DHT22;2377;51.734;8.950;2023-05-20T05:24:32;11.80;1.00
4727;DHT22;2377;51.734;8.950;2023-05-20T05:26:58;11.90;1.00
4727;DHT22;2377;51.734;8.950;2023-05-20T05:29:25;11.90;1.00
4727;DHT22;2377;51.734;8.950;2023-05-20T05:31:52;11.90;1.00
4727;DHT22;2377;51.734;8.950;2023-05-20T05:34:19;11.90;1.00
4727;DHT22;2377;51.734;8.950;2023-05-20T05:36:46;11.90;1.00
4727;DHT22;2377;51.734;8.950;2023-05-20T05:39:14;12.00;1.00
4727;DHT22;2377;51.734;8.950;2023-05-20T05:41:41;12.00;1.00
4727;DHT22;2377;51.734;8.950;2023-05-20T05:44:08;12.00;1.00
4727;DHT22;2377;51.734;8.950;2023-05-20T05:46:35;12.00;1.00
4727;DHT22;2377;51.734;8.950;2023-05-20T05:49:02;12.00;1.00
4727;DHT22;2377;51.734;8.950;2023-05-20T05:51:29;12.00;1.00
4727;DHT22;2377;51.734;8.950;2023-05-20T05:53:56;12.10;1.00
4727;DHT22;2377;51.734;8.950;2023-05-20T05:56:24;12.10;1.00
4727;DHT22;2377;51.734;8.950;2023-05-20T05:58:51;12.10;1.00
4727;DHT22;2377;51.734;8.950;2023-05-20T06:01:18;12.10;1.00
4727;DHT22;2377;51.734;8.950;2023-05-20T06:03:46;12.20;1.00
4727;DHT22;2377;51.734;8.950;2023-05-20T06:06:13;12.30;1.00
4727;DHT22;2377;51.734;8.950;2023-05-20T06:08:39;12.30;1.00
4727;DHT22;2377;51.734;8.950;2023-05-20T06:11:06;12.30;1.00
4727;DHT22;2377;51.734;8.950;2023-05-20T06:13:36;12.30;1.00
4727;DHT22;2377;51.734;8.950;2023-05-20T06:16:04;12.30;1.00
4727;DHT22;2377;51.734;8.950;2023-05-20T06:18:31;12.40;1.00
4727;DHT22;2377;51.734;8.950;2023-05-20T06:20:58;12.40;1.00
4727;DHT22;2377;51.734;8.950;2023-05-20T06:23:25;12.50;1.00
4727;DHT22;2377;51.734;8.950;2023-05-20T06:25:52;12.50;1.00
4727;DHT22;2377;51.734;8.950;2023-05-20T06:28:23;12.60;1.00
4727;DHT22;2377;51.734;8.950;2023-05-20T06:30:53;12.60;1.00
4727;DHT22;2377;51.734;8.950;2023-05-20T06:33:22;12.60;1.00
4727;DHT22;2377;51.734;8.950;2023-05-20T06:35:51;12.70;1.00
4727;DHT22;2377;51.734;8.950;2023-05-20T06:38:18;12.80;1.00
4727;DHT22;2377;51.734;8.950;2023-05-20T06:40:45;12.90;1.00
4727;DHT22;2377;51.734;8.950;2023-05-20T06:43:13;13.00;1.00
4727;DHT22;2377;51.734;8.950;2023-05-20T06:45:40;13.20;1.00
4727;DHT22;2377;51.734;8.950;2023-05-20T06:48:09;13.30;1.00
4727;DHT22;2377;51.734;8.950;2023-05-20T06:50:36;13.50;1.00
4727;DHT22;2377;51.734;8.950;2023-05-20T06:53:03;13.60;1.00
4727;DHT22;2377;51.734;8.950;2023-05-20T06:55:30;13.70;1.00
4727;DHT22;2377;51.734;8.950;2023-05-20T06:57:57;13.80;1.00
4727;DHT22;2377;51.734;8.950;2023-05-20T07:00:24;13.80;1.00
4727;DHT22;2377;51.734;8.950;2023-05-20T07:02:51;14.00;1.00
4727;DHT22;2377;51.734;8.950;2023-05-20T07:05:19;14.10;1.00
4727;DHT22;2377;51.734;8.950;2023-05-20T07:07:46;14.20;1.00
4727;DHT22;2377;51.734;8.950;2023-05-20T07:10:13;14.20;1.00
4727;DHT22;2377;51.734;8.950;2023-05-20T07:12:40;14.40;1.00
4727;DHT22;2377;51.734;8.950;2023-05-20T07:15:08;14.50;1.00
4727;DHT22;2377;51.734;8.950;2023-05-20T07:17:35;14.60;1.00
4727;DHT22;2377;51.734;8.950;2023-05-20T07:20:02;14.70;1.00
4727;DHT22;2377;51.734;8.950;2023-05-20T07:22:31;14.80;1.00
4727;DHT22;2377;51.734;8.950;2023-05-20T07:24:58;14.90;1.00
4727;DHT22;2377;51.734;8.950;2023-05-20T07:27:25;14.90;1.00
4727;DHT22;2377;51.734;8.950;2023-05-20T07:29:52;15.00;1.00
4727;DHT22;2377;51.734;8.950;2023-05-20T07:32:19;15.00;1.00
4727;DHT22;2377;51.734;8.950;2023-05-20T07:34:46;15.00;1.00
4727;DHT22;2377;51.734;8.950;2023-05-20T07:37:13;15.00;1.00
4727;DHT22;2377;51.734;8.950;2023-05-20T07:39:42;15.00;1.00
4727;DHT22;2377;51.734;8.950;2023-05-20T07:42:09;15.00;1.00
4727;DHT22;2377;51.734;8.950;2023-05-20T07:44:36;15.00;1.00
4727;DHT22;2377;51.734;8.950;2023-05-20T07:47:03;15.10;1.00
4727;DHT22;2377;51.734;8.950;2023-05-20T07:49:30;15.10;1.00
4727;DHT22;2377;51.734;8.950;2023-05-20T07:51:57;15.30;1.00
4727;DHT22;2377;51.734;8.950;2023-05-20T07:54:25;15.50;1.00
4727;DHT22;2377;51.734;8.950;2023-05-20T07:56:53;15.80;1.00
4727;DHT22;2377;51.734;8.950;2023-05-20T07:59:20;16.30;1.00
4727;DHT22;2377;51.734;8.950;2023-05-20T08:01:47;16.60;1.00
4727;DHT22;2377;51.734;8.950;2023-05-20T08:04:14;16.70;1.00
4727;DHT22;2377;51.734;8.950;2023-05-20T08:06:41;16.90;1.00
4727;DHT22;2377;51.734;8.950;2023-05-20T08:09:08;17.00;1.00
4727;DHT22;2377;51.734;8.950;2023-05-20T08:11:36;17.30;1.00
4727;DHT22;2377;51.734;8.950;2023-05-20T08:14:04;17.40;1.00
4727;DHT22;2377;51.734;8.950;2023-05-20T08:16:31;17.50;1.00
4727;DHT22;2377;51.734;8.950;2023-05-20T08:18:58;17.60;1.00
4727;DHT22;2377;51.734;8.950;2023-05-20T08:21:25;17.60;1.00
4727;DHT22;2377;51.734;8.950;2023-05-20T08:23:52;17.80;1.00
4727;DHT22;2377;51.734;8.950;2023-05-20T08:26:18;17.80;1.00
4727;DHT22;2377;51.734;8.950;2023-05-20T08:28:46;17.80;1.00
4727;DHT22;2377;51.734;8.950;2023-05-20T08:31:14;17.80;1.00
4727;DHT22;2377;51.734;8.950;2023-05-20T08:33:42;17.60;1.00
4727;DHT22;2377;51.734;8.950;2023-05-20T08:36:09;17.50;1.00
4727;DHT22;2377;51.734;8.950;2023-05-20T08:38:36;17.40;1.00
4727;DHT22;2377;51.734;8.950;2023-05-20T08:41:03;17.40;1.00
4727;DHT22;2377;51.734;8.950;2023-05-20T08:43:29;17.40;1.00
4727;DHT22;2377;51.734;8.950;2023-05-20T08:45:57;17.60;1.00
4727;DHT22;2377;51.734;8.950;2023-05-20T08:48:25;17.70;1.00
4727;DHT22;2377;51.734;8.950;2023-05-20T08:50:56;17.70;1.00
4727;DHT22;2377;51.734;8.950;2023-05-20T08:53:25;18.00;1.00
4727;DHT22;2377;51.734;8.950;2023-05-20T08:55:53;18.40;1.00
4727;DHT22;2377;51.734;8.950;2023-05-20T08:58:22;18.50;1.00
4727;DHT22;2377;51.734;8.950;2023-05-20T09:00:50;18.20;1.00
4727;DHT22;2377;51.734;8.950;2023-05-20T09:03:18;18.10;1.00
4727;DHT22;2377;51.734;8.950;2023-05-20T09:05:47;18.10;1.00
4727;DHT22;2377;51.734;8.950;2023-05-20T09:08:14;18.30;1.00
4727;DHT22;2377;51.734;8.950;2023-05-20T09:10:41;18.40;1.00
4727;DHT22;2377;51.734;8.950;2023-05-20T09:13:09;18.50;1.00
4727;DHT22;2377;51.734;8.950;2023-05-20T09:15:37;18.60;1.00
4727;DHT22;2377;51.734;8.950;2023-05-20T09:18:05;18.50;1.00
4727;DHT22;2377;51.734;8.950;2023-05-20T09:20:34;18.50;1.00
4727;DHT22;2377;51.734;8.950;2023-05-20T09:23:05;18.70;1.00
4727;DHT22;2377;51.734;8.950;2023-05-20T09:25:34;19.00;1.00
4727;DHT22;2377;51.734;8.950;2023-05-20T09:28:03;19.00;1.00
4727;DHT22;2377;51.734;8.950;2023-05-20T09:30:33;19.00;1.00
4727;DHT22;2377;51.734;8.950;2023-05-20T09:33:03;18.80;1.00
4727;DHT22;2377;51.734;8.950;2023-05-20T09:35:34;18.90;1.00
4727;DHT22;2377;51.734;8.950;2023-05-20T09:38:04;19.10;1.00
4727;DHT22;2377;51.734;8.950;2023-05-20T09:40:32;19.20;1.00
4727;DHT22;2377;51.734;8.950;2023-05-20T09:43:02;19.30;1.00
4727;DHT22;2377;51.734;8.950;2023-05-20T09:45:31;19.50;1.00
4727;DHT22;2377;51.734;8.950;2023-05-20T09:48:00;19.40;1.00
4727;DHT22;2377;51.734;8.950;2023-05-20T09:50:27;19.10;1.00
4727;DHT22;2377;51.734;8.950;2023-05-20T09:52:56;18.90;1.00
4727;DHT22;2377;51.734;8.950;2023-05-20T09:55:29;18.80;1.00
4727;DHT22;2377;51.734;8.950;2023-05-20T09:57:59;18.70;1.00
4727;DHT22;2377;51.734;8.950;2023-05-20T10:00:28;18.60;1.00
4727;DHT22;2377;51.734;8.950;2023-05-20T10:02:56;18.50;1.00
4727;DHT22;2377;51.734;8.950;2023-05-20T10:05:26;18.50;1.00
4727;DHT22;2377;51.734;8.950;2023-05-20T10:08:10;18.40;1.00
4727;DHT22;2377;51.734;8.950;2023-05-20T10:11:02;18.40;1.00
4727;DHT22;2377;51.734;8.950;2023-05-20T10:13:56;18.50;1.00
4727;DHT22;2377;51.734;8.950;2023-05-20T10:16:40;18.60;1.00
4727;DHT22;2377;51.734;8.950;2023-05-20T10:19:18;18.50;1.00
4727;DHT22;2377;51.734;8.950;2023-05-20T10:21:57;18.40;1.00
4727;DHT22;2377;51.734;8.950;2023-05-20T10:24:30;18.40;1.00
4727;DHT22;2377;51.734;8.950;2023-05-20T10:27:02;18.30;1.00
4727;DHT22;2377;51.734;8.950;2023-05-20T10:29:42;18.30;1.00
4727;DHT22;2377;51.734;8.950;2023-05-20T10:32:21;18.20;1.00
4727;DHT22;2377;51.734;8.950;2023-05-20T10:34:50;18.30;1.00
4727;DHT22;2377;51.734;8.950;2023-05-20T10:37:23;18.30;1.00
4727;DHT22;2377;51.734;8.950;2023-05-20T10:40:04;18.40;1.00
4727;DHT22;2377;51.734;8.950;2023-05-20T10:42:33;18.50;1.00
4727;DHT22;2377;51.734;8.950;2023-05-20T10:45:01;18.50;1.00
4727;DHT22;2377;51.734;8.950;2023-05-20T10:47:29;18.50;1.00
4727;DHT22;2377;51.734;8.950;2023-05-20T10:49:57;18.40;1.00
4727;DHT22;2377;51.734;8.950;2023-05-20T10:52:26;18.40;1.00
4727;DHT22;2377;51.734;8.950;2023-05-20T10:54:55;18.40;1.00
4727;DHT22;2377;51.734;8.950;2023-05-20T10:57:25;18.50;1.00
4727;DHT22;2377;51.734;8.950;2023-05-20T10:59:54;18.50;1.00
4727;DHT22;2377;51.734;8.950;2023-05-20T11:02:22;18.50;1.00
4727;DHT22;2377;51.734;8.950;2023-05-20T11:04:51;18.40;1.00
4727;DHT22;2377;51.734;8.950;2023-05-20T11:07:25;18.40;1.00
4727;DHT22;2377;51.734;8.950;2023-05-20T11:09:53;18.30;1.00
4727;DHT22;2377;51.734;8.950;2023-05-20T11:12:20;18.20;1.00
4727;DHT22;2377;51.734;8.950;2023-05-20T11:14:48;18.10;1.00
4727;DHT22;2377;51.734;8.950;2023-05-20T11:17:17;18.00;1.00
4727;DHT22;2377;51.734;8.950;2023-05-20T11:19:45;18.00;1.00
4727;DHT22;2377;51.734;8.950;2023-05-20T11:22:13;17.80;1.00
4727;DHT22;2377;51.734;8.950;2023-05-20T11:24:40;17.80;1.00
4727;DHT22;2377;51.734;8.950;2023-05-20T11:27:07;17.70;1.00
4727;DHT22;2377;51.734;8.950;2023-05-20T11:29:34;17.70;1.00
4727;DHT22;2377;51.734;8.950;2023-05-20T11:32:01;17.80;1.00
4727;DHT22;2377;51.734;8.950;2023-05-20T11:34:34;17.90;1.00
4727;DHT22;2377;51.734;8.950;2023-05-20T11:37:01;18.00;1.00
4727;DHT22;2377;51.734;8.950;2023-05-20T11:39:32;18.00;1.00
4727;DHT22;2377;51.734;8.950;2023-05-20T11:41:59;18.00;1.00
4727;DHT22;2377;51.734;8.950;2023-05-20T11:44:26;18.10;1.00
4727;DHT22;2377;51.734;8.950;2023-05-20T11:46:59;18.20;1.00
4727;DHT22;2377;51.734;8.950;2023-05-20T11:49:27;18.10;1.00
4727;DHT22;2377;51.734;8.950;2023-05-20T11:51:57;18.20;1.00
4727;DHT22;2377;51.734;8.950;2023-05-20T11:54:24;18.30;1.00
4727;DHT22;2377;51.734;8.950;2023-05-20T11:56:53;18.30;1.00
4727;DHT22;2377;51.734;8.950;2023-05-20T11:59:22;18.30;1.00
4727;DHT22;2377;51.734;8.950;2023-05-20T12:01:50;18.30;1.00
4727;DHT22;2377;51.734;8.950;2023-05-20T12:04:19;18.30;1.00
4727;DHT22;2377;51.734;8.950;2023-05-20T12:06:46;18.50;1.00
4727;DHT22;2377;51.734;8.950;2023-05-20T12:09:14;18.60;1.00
4727;DHT22;2377;51.734;8.950;2023-05-20T12:11:42;18.80;1.00
4727;DHT22;2377;51.734;8.950;2023-05-20T12:14:09;18.70;1.00
4727;DHT22;2377;51.734;8.950;2023-05-20T12:16:37;18.80;1.00
4727;DHT22;2377;51.734;8.950;2023-05-20T12:19:04;18.80;1.00
4727;DHT22;2377;51.734;8.950;2023-05-20T12:21:31;18.80;1.00
4727;DHT22;2377;51.734;8.950;2023-05-20T12:23:58;19.00;1.00
4727;DHT22;2377;51.734;8.950;2023-05-20T12:26:27;19.00;1.00
4727;DHT22;2377;51.734;8.950;2023-05-20T12:28:55;18.80;1.00
4727;DHT22;2377;51.734;8.950;2023-05-20T12:31:23;18.80;1.00
4727;DHT22;2377;51.734;8.950;2023-05-20T12:33:53;18.80;1.00
4727;DHT22;2377;51.734;8.950;2023-05-20T12:36:20;18.90;1.00
4727;DHT22;2377;51.734;8.950;2023-05-20T12:38:47;19.10;1.00
4727;DHT22;2377;51.734;8.950;2023-05-20T12:41:13;19.30;1.00
4727;DHT22;2377;51.734;8.950;2023-05-20T12:43:42;19.40;1.00
4727;DHT22;2377;51.734;8.950;2023-05-20T12:46:09;19.30;1.00
4727;DHT22;2377;51.734;8.950;2023-05-20T12:48:36;19.30;1.00
4727;DHT22;2377;51.734;8.950;2023-05-20T12:51:03;19.40;1.00
4727;DHT22;2377;51.734;8.950;2023-05-20T12:53:30;19.30;1.00
4727;DHT22;2377;51.734;8.950;2023-05-20T12:55:57;19.20;1.00
4727;DHT22;2377;51.734;8.950;2023-05-20T12:58:24;19.20;1.00
4727;DHT22;2377;51.734;8.950;2023-05-20T13:00:58;19.20;1.00
4727;DHT22;2377;51.734;8.950;2023-05-20T13:03:25;19.10;1.00
4727;DHT22;2377;51.734;8.950;2023-05-20T13:05:54;19.20;1.00
4727;DHT22;2377;51.734;8.950;2023-05-20T13:08:31;19.40;1.00
4727;DHT22;2377;51.734;8.950;2023-05-20T13:10:58;19.60;1.00
4727;DHT22;2377;51.734;8.950;2023-05-20T13:13:25;19.80;1.00
4727;DHT22;2377;51.734;8.950;2023-05-20T13:15:51;19.70;1.00
4727;DHT22;2377;51.734;8.950;2023-05-20T13:18:20;19.80;1.00
4727;DHT22;2377;51.734;8.950;2023-05-20T13:20:46;19.80;1.00
4727;DHT22;2377;51.734;8.950;2023-05-20T13:23:14;19.60;1.00
4727;DHT22;2377;51.734;8.950;2023-05-20T13:25:41;19.40;1.00
4727;DHT22;2377;51.734;8.950;2023-05-20T13:28:08;19.10;1.00
4727;DHT22;2377;51.734;8.950;2023-05-20T13:30:36;19.10;1.00
4727;DHT22;2377;51.734;8.950;2023-05-20T13:33:03;19.10;1.00
4727;DHT22;2377;51.734;8.950;2023-05-20T13:35:32;19.10;1.00
4727;DHT22;2377;51.734;8.950;2023-05-20T13:37:59;19.00;1.00
4727;DHT22;2377;51.734;8.950;2023-05-20T13:40:26;19.00;1.00
4727;DHT22;2377;51.734;8.950;2023-05-20T13:42:53;19.00;1.00
4727;DHT22;2377;51.734;8.950;2023-05-20T13:45:20;19.10;1.00
4727;DHT22;2377;51.734;8.950;2023-05-20T13:47:47;19.30;1.00
4727;DHT22;2377;51.734;8.950;2023-05-20T13:50:14;19.30;1.00
4727;DHT22;2377;51.734;8.950;2023-05-20T13:52:43;19.30;1.00
4727;DHT22;2377;51.734;8.950;2023-05-20T13:55:10;19.20;1.00
4727;DHT22;2377;51.734;8.950;2023-05-20T13:57:36;19.10;1.00
4727;DHT22;2377;51.734;8.950;2023-05-20T14:00:05;19.00;1.00
4727;DHT22;2377;51.734;8.950;2023-05-20T14:02:32;18.80;1.00
4727;DHT22;2377;51.734;8.950;2023-05-20T14:04:59;18.70;1.00
4727;DHT22;2377;51.734;8.950;2023-05-20T14:07:27;18.60;1.00
4727;DHT22;2377;51.734;8.950;2023-05-20T14:09:55;18.30;1.00
4727;DHT22;2377;51.734;8.950;2023-05-20T14:12:22;18.30;1.00
4727;DHT22;2377;51.734;8.950;2023-05-20T14:14:49;18.30;1.00
4727;DHT22;2377;51.734;8.950;2023-05-20T14:17:17;18.30;1.00
4727;DHT22;2377;51.734;8.950;2023-05-20T14:19:44;18.20;1.00
4727;DHT22;2377;51.734;8.950;2023-05-20T14:22:10;18.10;1.00
4727;DHT22;2377;51.734;8.950;2023-05-20T14:24:39;18.10;1.00
4727;DHT22;2377;51.734;8.950;2023-05-20T14:27:07;18.10;1.00
4727;DHT22;2377;51.734;8.950;2023-05-20T14:29:36;18.00;1.00
4727;DHT22;2377;51.734;8.950;2023-05-20T14:32:03;18.00;1.00
4727;DHT22;2377;51.734;8.950;2023-05-20T14:34:30;18.00;1.00
4727;DHT22;2377;51.734;8.950;2023-05-20T14:36:57;18.00;1.00
4727;DHT22;2377;51.734;8.950;2023-05-20T14:39:29;18.00;1.00
4727;DHT22;2377;51.734;8.950;2023-05-20T14:41:56;18.00;1.00
4727;DHT22;2377;51.734;8.950;2023-05-20T14:44:24;17.90;1.00
4727;DHT22;2377;51.734;8.950;2023-05-20T14:46:51;17.80;1.00
4727;DHT22;2377;51.734;8.950;2023-05-20T14:49:18;17.80;1.00
4727;DHT22;2377;51.734;8.950;2023-05-20T14:51:45;17.90;1.00
4727;DHT22;2377;51.734;8.950;2023-05-20T14:54:12;17.90;1.00
4727;DHT22;2377;51.734;8.950;2023-05-20T14:56:40;17.80;1.00
4727;DHT22;2377;51.734;8.950;2023-05-20T14:59:08;17.80;1.00
4727;DHT22;2377;51.734;8.950;2023-05-20T15:01:36;17.80;1.00
4727;DHT22;2377;51.734;8.950;2023-05-20T15:04:03;17.80;1.00
4727;DHT22;2377;51.734;8.950;2023-05-20T15:06:30;17.80;1.00
4727;DHT22;2377;51.734;8.950;2023-05-20T15:08:59;17.80;1.00
4727;DHT22;2377;51.734;8.950;2023-05-20T15:11:26;17.70;1.00
4727;DHT22;2377;51.734;8.950;2023-05-20T15:13:53;17.60;1.00
4727;DHT22;2377;51.734;8.950;2023-05-20T15:16:20;17.60;1.00
4727;DHT22;2377;51.734;8.950;2023-05-20T15:18:50;17.70;1.00
4727;DHT22;2377;51.734;8.950;2023-05-20T15:21:17;17.60;1.00
4727;DHT22;2377;51.734;8.950;2023-05-20T15:23:44;17.50;1.00
4727;DHT22;2377;51.734;8.950;2023-05-20T15:26:11;17.50;1.00
4727;DHT22;2377;51.734;8.950;2023-05-20T15:28:38;17.60;1.00
4727;DHT22;2377;51.734;8.950;2023-05-20T15:31:05;17.60;1.00
4727;DHT22;2377;51.734;8.950;2023-05-20T15:33:32;17.60;1.00
4727;DHT22;2377;51.734;8.950;2023-05-20T15:36:01;17.50;1.00
4727;DHT22;2377;51.734;8.950;2023-05-20T15:38:28;17.50;1.00
4727;DHT22;2377;51.734;8.950;2023-05-20T15:40:55;17.50;1.00
4727;DHT22;2377;51.734;8.950;2023-05-20T15:43:22;17.50;1.00
4727;DHT22;2377;51.734;8.950;2023-05-20T15:45:48;17.50;1.00
4727;DHT22;2377;51.734;8.950;2023-05-20T15:48:15;17.50;1.00
4727;DHT22;2377;51.734;8.950;2023-05-20T15:50:42;17.50;1.00
4727;DHT22;2377;51.734;8.950;2023-05-20T15:53:13;17.50;1.00
4727;DHT22;2377;51.734;8.950;2023-05-20T15:55:40;17.50;1.00
4727;DHT22;2377;51.734;8.950;2023-05-20T15:58:07;17.60;1.00
4727;DHT22;2377;51.734;8.950;2023-05-20T16:00:34;17.60;1.00
4727;DHT22;2377;51.734;8.950;2023-05-20T16:03:01;17.60;1.00
4727;DHT22;2377;51.734;8.950;2023-05-20T16:05:28;17.60;1.00
4727;DHT22;2377;51.734;8.950;2023-05-20T16:07:55;17.50;1.00
4727;DHT22;2377;51.734;8.950;2023-05-20T16:10:23;17.50;1.00
4727;DHT22;2377;51.734;8.950;2023-05-20T16:12:56;17.50;1.00
4727;DHT22;2377;51.734;8.950;2023-05-20T16:15:24;17.50;1.00
4727;DHT22;2377;51.734;8.950;2023-05-20T16:17:51;17.50;1.00
4727;DHT22;2377;51.734;8.950;2023-05-20T16:20:18;17.50;1.00
4727;DHT22;2377;51.734;8.950;2023-05-20T16:22:45;17.50;1.00